createdAt,value
2023-04-17T00:00:26.393Z,101886.19
2023-04-17T00:02:53.376Z,101873.06
2023-04-17T00:05:23.401Z,101859.25
2023-04-17T00:07:50.212Z,101881.03
2023-04-17T00:10:16.988Z,101924.38
2023-04-17T00:12:43.802Z,101881.44
2023-04-17T00:15:11.059Z,101887.63
2023-04-17T00:17:37.942Z,101887.44
2023-04-17T00:20:10.489Z,101856.47
2023-04-17T00:22:37.954Z,101815.97
2023-04-17T00:25:05.670Z,101891.28
2023-04-17T00:27:32.564Z,101853.41
2023-04-17T00:29:59.358Z,101868.16
2023-04-17T00:32:26.250Z,101876.91
2023-04-17T00:34:55.577Z,101883.34
2023-04-17T00:37:22.535Z,101873.78
2023-04-17T00:39:49.289Z,101872.75
2023-04-17T00:42:16.024Z,101894.47
2023-04-17T00:44:42.866Z,101856.47
2023-04-17T00:47:09.871Z,101872.81
2023-04-17T00:49:36.842Z,101902.38
2023-04-17T00:52:04.179Z,101873.03
2023-04-17T00:54:31.916Z,101898.94
2023-04-17T00:57:01.328Z,101888.63
2023-04-17T00:59:29.035Z,101882.53
2023-04-17T01:01:56.160Z,101904.31
2023-04-17T01:04:23.318Z,101901.84
2023-04-17T01:06:50.126Z,101904.63
2023-04-17T01:09:17.129Z,101853.56
2023-04-17T01:11:43.974Z,101872.56
2023-04-17T01:14:10.944Z,101908.34
2023-04-17T01:16:39.386Z,101881.50
2023-04-17T01:19:08.849Z,101894.50
2023-04-17T01:21:36.042Z,101917.59
2023-04-17T01:24:03.638Z,101909.16
2023-04-17T01:26:32.430Z,101918.47
2023-04-17T01:29:00.051Z,101883.94
2023-04-17T01:31:28.976Z,101921.63
2023-04-17T01:33:56.109Z,101907.22
2023-04-17T01:36:22.957Z,101969.38
2023-04-17T01:38:49.772Z,101972.09
2023-04-17T01:41:16.649Z,101896.94
2023-04-17T01:43:46.273Z,101972.16
2023-04-17T01:46:13.556Z,101975.75
2023-04-17T01:48:40.906Z,101974.03
2023-04-17T01:51:07.851Z,101958.47
2023-04-17T01:53:35.393Z,101932.47
2023-04-17T01:56:02.539Z,101936.81
2023-04-17T01:58:29.645Z,101961.97
2023-04-17T02:00:56.465Z,101931.56
2023-04-17T02:03:24.839Z,101918.66
2023-04-17T02:05:53.706Z,101935.00
2023-04-17T02:08:20.709Z,101929.94
2023-04-17T02:10:47.536Z,101947.97
2023-04-17T02:13:14.332Z,101945.34
2023-04-17T02:15:41.133Z,101958.38
2023-04-17T02:18:08.333Z,101932.56
2023-04-17T02:20:36.734Z,101905.06
2023-04-17T02:23:05.004Z,101913.63
2023-04-17T02:25:31.998Z,101963.00
2023-04-17T02:27:58.780Z,101907.81
2023-04-17T02:30:26.857Z,101968.34
2023-04-17T02:32:54.510Z,102007.09
2023-04-17T02:35:23.173Z,102004.59
2023-04-17T02:37:50.387Z,102027.22
2023-04-17T02:40:17.341Z,101950.97
2023-04-17T02:42:44.125Z,101978.63
2023-04-17T02:45:11.891Z,101951.97
2023-04-17T02:47:38.723Z,101998.59
2023-04-17T02:50:06.536Z,101962.97
2023-04-17T02:52:33.761Z,101983.66
2023-04-17T02:55:00.539Z,101957.75
2023-04-17T02:57:27.354Z,102013.22
2023-04-17T02:59:54.158Z,101971.69
2023-04-17T03:02:22.268Z,102018.28
2023-04-17T03:04:50.705Z,102015.94
2023-04-17T03:07:18.944Z,101985.66
2023-04-17T03:09:49.306Z,101992.59
2023-04-17T03:12:17.736Z,102043.66
2023-04-17T03:14:44.616Z,102002.91
2023-04-17T03:17:12.227Z,102033.97
2023-04-17T03:19:39.052Z,101974.19
2023-04-17T03:22:06.005Z,101948.41
2023-04-17T03:24:33.128Z,102034.91
2023-04-17T03:27:01.196Z,101999.44
2023-04-17T03:29:28.379Z,101997.75
2023-04-17T03:31:55.190Z,102016.09
2023-04-17T03:34:22.399Z,102034.25
2023-04-17T03:36:49.494Z,101991.00
2023-04-17T03:39:16.459Z,102053.41
2023-04-17T03:41:43.319Z,101995.53
2023-04-17T03:44:10.272Z,101999.84
2023-04-17T03:46:38.465Z,102040.47
2023-04-17T03:49:05.705Z,102018.13
2023-04-17T03:51:32.482Z,101999.81
2023-04-17T03:53:59.304Z,102049.94
2023-04-17T03:56:26.252Z,102063.84
2023-04-17T03:58:53.057Z,102032.00
2023-04-17T04:01:19.982Z,102025.97
2023-04-17T04:03:47.032Z,102059.72
2023-04-17T04:06:13.924Z,102066.63
2023-04-17T04:08:40.699Z,101989.56
2023-04-17T04:11:08.398Z,102034.56
2023-04-17T04:13:35.104Z,102010.44
2023-04-17T04:16:01.907Z,102009.50
2023-04-17T04:18:28.707Z,102031.06
2023-04-17T04:20:55.603Z,102043.06
2023-04-17T04:23:25.164Z,102066.31
2023-04-17T04:25:51.978Z,102017.69
2023-04-17T04:28:18.809Z,102026.50
2023-04-17T04:30:50.751Z,102062.66
2023-04-17T04:33:20.652Z,101994.13
2023-04-17T04:35:48.968Z,102052.91
2023-04-17T04:38:17.334Z,102032.22
2023-04-17T04:40:52.537Z,102052.25
2023-04-17T04:43:22.201Z,101999.28
2023-04-17T04:45:49.247Z,102040.00
2023-04-17T04:48:16.002Z,102009.75
2023-04-17T04:50:42.878Z,102004.63
2023-04-17T04:53:09.653Z,102010.66
2023-04-17T04:55:36.337Z,102059.06
2023-04-17T04:58:03.108Z,102007.00
2023-04-17T05:00:30.138Z,102057.19
2023-04-17T05:02:57.119Z,102089.47
2023-04-17T05:05:25.514Z,102063.50
2023-04-17T05:07:55.147Z,102099.03
2023-04-17T05:10:21.957Z,102089.78
2023-04-17T05:12:48.734Z,102037.09
2023-04-17T05:15:15.685Z,102056.22
2023-04-17T05:17:42.505Z,102043.16
2023-04-17T05:20:09.875Z,102025.97
2023-04-17T05:22:36.889Z,102046.78
2023-04-17T05:25:04.834Z,102129.88
2023-04-17T05:27:31.648Z,102090.25
2023-04-17T05:29:58.456Z,102072.91
2023-04-17T05:32:25.552Z,102120.47
2023-04-17T05:34:53.704Z,102052.06
2023-04-17T05:37:20.648Z,102058.16
2023-04-17T05:39:47.469Z,102052.91
2023-04-17T05:42:14.281Z,102075.28
2023-04-17T05:44:41.332Z,102079.66
2023-04-17T05:47:08.064Z,102112.47
2023-04-17T05:49:34.943Z,102111.53
2023-04-17T05:52:01.774Z,102109.72
2023-04-17T05:54:30.384Z,102111.47
2023-04-17T05:56:57.207Z,102095.97
2023-04-17T05:59:23.957Z,102095.78
2023-04-17T06:01:51.192Z,102132.19
2023-04-17T06:04:18.660Z,102091.28
2023-04-17T06:06:45.712Z,102084.41
2023-04-17T06:09:12.770Z,102095.56
2023-04-17T06:11:39.602Z,102129.22
2023-04-17T06:14:06.501Z,102113.03
2023-04-17T06:16:33.280Z,102147.69
2023-04-17T06:19:00.001Z,102111.16
2023-04-17T06:21:27.039Z,102115.38
2023-04-17T06:23:53.861Z,102128.47
2023-04-17T06:26:20.808Z,102109.25
2023-04-17T06:28:47.557Z,102164.84
2023-04-17T06:31:14.364Z,102139.59
2023-04-17T06:33:41.043Z,102119.78
2023-04-17T06:36:07.866Z,102143.28
2023-04-17T06:38:34.680Z,102159.75
2023-04-17T06:41:01.506Z,102164.31
2023-04-17T06:43:28.235Z,102126.09
2023-04-17T06:45:55.205Z,102211.16
2023-04-17T06:48:22.048Z,102170.44
2023-04-17T06:50:49.181Z,102169.34
2023-04-17T06:53:16.220Z,102185.03
2023-04-17T06:55:42.992Z,102156.44
2023-04-17T06:58:09.768Z,102194.59
2023-04-17T07:00:36.691Z,102172.28
2023-04-17T07:03:03.608Z,102198.41
2023-04-17T07:05:30.732Z,102190.41
2023-04-17T07:07:57.534Z,102206.94
2023-04-17T07:10:24.356Z,102213.75
2023-04-17T07:12:51.271Z,102159.59
2023-04-17T07:15:18.482Z,102175.06
2023-04-17T07:17:45.255Z,102211.56
2023-04-17T07:20:12.306Z,102193.13
2023-04-17T07:22:39.095Z,102190.84
2023-04-17T07:25:06.785Z,102177.16
2023-04-17T07:27:33.546Z,102218.66
2023-04-17T07:30:00.801Z,102239.44
2023-04-17T07:32:28.625Z,102222.13
2023-04-17T07:34:55.682Z,102204.03
2023-04-17T07:37:22.486Z,102207.53
2023-04-17T07:39:53.063Z,102231.75
2023-04-17T07:42:19.911Z,102197.03
2023-04-17T07:44:47.408Z,102288.09
2023-04-17T07:47:14.289Z,102185.00
2023-04-17T07:49:41.275Z,102269.91
2023-04-17T07:52:08.065Z,102284.91
2023-04-17T07:54:34.841Z,102238.06
2023-04-17T07:57:03.077Z,102255.31
2023-04-17T07:59:30.680Z,102263.19
2023-04-17T08:01:57.790Z,102276.94
2023-04-17T08:04:26.016Z,102324.78
2023-04-17T08:06:52.983Z,102330.16
2023-04-17T08:09:22.299Z,102327.53
2023-04-17T08:11:57.034Z,102293.72
2023-04-17T08:14:25.515Z,102291.91
2023-04-17T08:16:52.485Z,102294.31
2023-04-17T08:19:19.331Z,102253.53
2023-04-17T08:21:49.670Z,102326.66
2023-04-17T08:24:19.788Z,102283.09
2023-04-17T08:26:47.557Z,102255.53
2023-04-17T08:29:14.671Z,102308.34
2023-04-17T08:31:41.723Z,102290.00
2023-04-17T08:34:14.332Z,102303.00
2023-04-17T08:36:41.903Z,102295.56
2023-04-17T08:39:11.343Z,102349.13
2023-04-17T08:42:03.101Z,102327.94
2023-04-17T08:44:30.707Z,102323.91
2023-04-17T08:47:01.017Z,102275.41
2023-04-17T08:49:35.472Z,102339.63
2023-04-17T08:52:04.565Z,102312.03
2023-04-17T08:54:35.410Z,102247.78
2023-04-17T08:57:05.885Z,102276.38
2023-04-17T08:59:32.842Z,102303.00
2023-04-17T09:02:07.819Z,102292.69
2023-04-17T09:04:45.436Z,102316.22
2023-04-17T09:07:13.731Z,102315.22
2023-04-17T09:09:50.968Z,102331.59
2023-04-17T09:12:19.215Z,102358.50
2023-04-17T09:14:46.108Z,102310.03
2023-04-17T09:17:14.289Z,102309.38
2023-04-17T09:20:07.306Z,102377.09
2023-04-17T09:22:35.469Z,102324.16
2023-04-17T09:25:02.894Z,102323.22
2023-04-17T09:27:29.932Z,102376.03
2023-04-17T09:30:00.163Z,102382.19
2023-04-17T09:37:51.644Z,102352.50
2023-04-17T09:40:20.544Z,102332.50
2023-04-17T09:42:58.453Z,102395.25
2023-04-17T09:45:27.079Z,102317.13
2023-04-17T09:47:57.472Z,102386.78
2023-04-17T09:53:09.120Z,102395.22
2023-04-17T09:55:38.293Z,102403.94
2023-04-17T09:58:07.751Z,102330.25
2023-04-17T10:00:36.751Z,102370.91
2023-04-17T10:03:03.985Z,102360.56
2023-04-17T10:05:32.560Z,102393.66
2023-04-17T10:07:59.788Z,102349.19
2023-04-17T10:10:33.790Z,102404.47
2023-04-17T10:13:07.293Z,102338.34
2023-04-17T10:15:34.468Z,102412.06
2023-04-17T10:18:20.104Z,102411.13
2023-04-17T10:20:48.751Z,102403.41
2023-04-17T10:23:34.351Z,102415.66
2023-04-17T10:26:34.559Z,102408.34
2023-04-17T10:29:01.308Z,102417.72
2023-04-17T10:32:06.141Z,102417.72
2023-04-17T10:34:41.811Z,102374.28
2023-04-17T10:37:15.413Z,102346.22
2023-04-17T10:40:10.251Z,102400.44
2023-04-17T10:42:37.110Z,102338.28
2023-04-17T10:45:09.097Z,102389.59
2023-04-17T10:47:36.241Z,102416.75
2023-04-17T10:50:05.433Z,102418.63
2023-04-17T10:52:35.221Z,102419.41
2023-04-17T10:55:09.199Z,102421.38
2023-04-17T10:58:01.203Z,102408.72
2023-04-17T11:00:30.124Z,102389.50
2023-04-17T11:02:57.033Z,102378.16
2023-04-17T11:05:24.419Z,102372.28
2023-04-17T11:07:51.671Z,102415.47
2023-04-17T11:10:23.058Z,102429.63
2023-04-17T11:12:58.665Z,102411.25
2023-04-17T11:15:29.987Z,102356.41
2023-04-17T11:17:58.970Z,102412.38
2023-04-17T11:20:28.033Z,102428.59
2023-04-17T11:22:54.874Z,102398.28
2023-04-17T11:25:27.099Z,102407.47
2023-04-17T11:27:58.570Z,102429.41
2023-04-17T11:30:28.402Z,102421.59
2023-04-17T11:32:57.477Z,102387.47
2023-04-17T11:35:28.917Z,102439.47
2023-04-17T11:38:19.295Z,102441.03
2023-04-17T11:40:59.170Z,102429.03
2023-04-17T11:43:27.960Z,102411.91
2023-04-17T11:45:59.822Z,102414.34
2023-04-17T11:48:28.628Z,102384.34
2023-04-17T11:51:03.735Z,102388.69
2023-04-17T11:53:31.231Z,102381.38
2023-04-17T11:56:15.789Z,102429.56
2023-04-17T11:58:46.881Z,102441.88
2023-04-17T12:01:13.773Z,102420.59
2023-04-17T12:03:41.833Z,102426.53
2023-04-17T12:06:13.288Z,102440.16
2023-04-17T12:08:54.387Z,102406.66
2023-04-17T12:11:31.368Z,102414.94
2023-04-17T12:13:58.707Z,102435.88
2023-04-17T12:16:26.715Z,102469.75
2023-04-17T12:18:54.546Z,102477.00
2023-04-17T12:21:22.150Z,102411.16
2023-04-17T12:23:48.927Z,102438.16
2023-04-17T12:26:15.866Z,102471.56
2023-04-17T12:28:42.781Z,102433.44
2023-04-17T12:31:09.745Z,102442.34
2023-04-17T12:33:36.558Z,102459.66
2023-04-17T12:36:05.454Z,102459.66
2023-04-17T12:38:32.405Z,102493.41
2023-04-17T12:40:59.128Z,102437.91
2023-04-17T12:43:25.932Z,102425.19
2023-04-17T12:45:53.189Z,102458.09
2023-04-17T12:48:19.973Z,102415.56
2023-04-17T12:50:46.676Z,102490.44
2023-04-17T12:53:14.679Z,102451.16
2023-04-17T12:55:44.037Z,102404.09
2023-04-17T12:58:12.221Z,102470.91
2023-04-17T13:00:40.693Z,102446.47
2023-04-17T13:03:07.813Z,102474.19
2023-04-17T13:05:34.845Z,102437.03
2023-04-17T13:08:01.937Z,102462.78
2023-04-17T13:10:28.922Z,102439.56
2023-04-17T13:12:57.950Z,102463.69
2023-04-17T13:15:25.094Z,102428.75
2023-04-17T13:17:51.855Z,102488.56
2023-04-17T13:20:19.007Z,102458.78
2023-04-17T13:22:45.751Z,102405.56
2023-04-17T13:25:12.390Z,102436.56
2023-04-17T13:27:39.170Z,102418.31
2023-04-17T13:30:06.706Z,102436.16
2023-04-17T13:32:35.058Z,102430.78
2023-04-17T13:35:03.082Z,102455.19
2023-04-17T13:37:29.949Z,102481.75
2023-04-17T13:39:56.759Z,102439.25
2023-04-17T13:42:23.604Z,102455.22
2023-04-17T13:44:50.318Z,102440.66
2023-04-17T13:47:17.049Z,102484.31
2023-04-17T13:49:43.977Z,102497.00
2023-04-17T13:52:10.865Z,102464.19
2023-04-17T13:54:37.659Z,102407.56
2023-04-17T13:57:04.409Z,102421.50
2023-04-17T13:59:31.166Z,102443.28
2023-04-17T14:02:00.445Z,102442.59
2023-04-17T14:04:27.445Z,102452.25
2023-04-17T14:06:54.568Z,102454.50
2023-04-17T14:09:21.331Z,102478.75
2023-04-17T14:11:48.093Z,102512.53
2023-04-17T14:14:14.863Z,102400.66
2023-04-17T14:16:41.707Z,102496.50
2023-04-17T14:19:14.202Z,102446.16
2023-04-17T14:21:41.793Z,102501.13
2023-04-17T14:24:08.990Z,102501.25
2023-04-17T14:26:37.570Z,102484.72
2023-04-17T14:29:05.832Z,102457.66
2023-04-17T14:31:32.658Z,102472.72
2023-04-17T14:33:59.364Z,102496.41
2023-04-17T14:36:26.240Z,102432.09
2023-04-17T14:38:54.383Z,102472.94
2023-04-17T14:41:21.385Z,102419.63
2023-04-17T14:43:48.299Z,102428.88
2023-04-17T14:46:15.165Z,102436.09
2023-04-17T14:51:15.317Z,102418.97
2023-04-17T14:53:42.176Z,102436.63
2023-04-17T14:56:09.684Z,102497.44
2023-04-17T14:58:36.587Z,102434.88
2023-04-17T15:01:03.831Z,102471.59
2023-04-17T15:03:32.399Z,102416.78
2023-04-17T15:06:01.584Z,102511.50
2023-04-17T15:08:28.870Z,102457.59
2023-04-17T15:10:55.581Z,102458.66
2023-04-17T15:13:22.282Z,102457.81
2023-04-17T15:15:49.092Z,102474.03
2023-04-17T15:18:15.836Z,102486.69
2023-04-17T15:20:42.631Z,102480.34
2023-04-17T15:23:09.359Z,102494.31
2023-04-17T15:25:36.057Z,102514.81
2023-04-17T15:28:02.886Z,102474.13
2023-04-17T15:30:29.648Z,102441.28
2023-04-17T15:32:56.617Z,102472.50
2023-04-17T15:35:23.366Z,102455.88
2023-04-17T15:37:50.102Z,102506.00
2023-04-17T15:40:16.948Z,102466.00
2023-04-17T15:42:43.874Z,102439.66
2023-04-17T15:45:11.033Z,102437.97
2023-04-17T15:47:37.826Z,102462.09
2023-04-17T15:50:06.362Z,102512.09
2023-04-17T15:52:33.228Z,102456.34
2023-04-17T15:55:00.059Z,102472.16
2023-04-17T15:57:26.887Z,102485.13
2023-04-17T15:59:53.661Z,102447.09
2023-04-17T16:02:21.574Z,102481.59
2023-04-17T16:04:48.481Z,102509.44
2023-04-17T16:07:16.621Z,102489.63
2023-04-17T16:09:44.725Z,102455.31
2023-04-17T16:12:16.832Z,102467.00
2023-04-17T16:14:47.129Z,102481.72
2023-04-17T16:17:13.941Z,102486.38
2023-04-17T16:19:50.531Z,102522.13
2023-04-17T16:22:18.685Z,102494.38
2023-04-17T16:24:51.580Z,102511.03
2023-04-17T16:27:29.423Z,102411.13
2023-04-17T16:29:56.212Z,102467.81
2023-04-17T16:32:24.655Z,102502.50
2023-04-17T16:34:52.443Z,102517.16
2023-04-17T16:37:19.156Z,102457.25
2023-04-17T16:39:45.990Z,102402.53
2023-04-17T16:42:12.747Z,102479.78
2023-04-17T16:44:39.489Z,102466.00
2023-04-17T16:47:13.132Z,102469.59
2023-04-17T16:49:41.121Z,102448.75
2023-04-17T16:52:08.027Z,102464.41
2023-04-17T16:54:34.909Z,102506.03
2023-04-17T16:57:01.822Z,102431.28
2023-04-17T16:59:28.549Z,102465.00
2023-04-17T17:01:55.392Z,102470.91
2023-04-17T17:04:22.236Z,102480.19
2023-04-17T17:06:49.064Z,102447.34
2023-04-17T17:09:15.914Z,102455.22
2023-04-17T17:11:42.622Z,102476.47
2023-04-17T17:14:09.415Z,102461.06
2023-04-17T17:16:36.932Z,102451.78
2023-04-17T17:19:04.090Z,102471.75
2023-04-17T17:21:31.188Z,102483.13
2023-04-17T17:23:58.195Z,102477.00
2023-04-17T17:26:26.849Z,102521.22
2023-04-17T17:29:00.009Z,102449.94
2023-04-17T17:31:27.354Z,102470.78
2023-04-17T17:33:56.174Z,102496.38
2023-04-17T17:36:23.156Z,102511.31
2023-04-17T17:38:56.087Z,102472.84
2023-04-17T17:41:23.834Z,102512.88
2023-04-17T17:43:56.356Z,102499.94
2023-04-17T17:46:24.567Z,102539.03
2023-04-17T17:48:51.377Z,102468.66
2023-04-17T17:56:41.793Z,102529.19
2023-04-17T17:59:08.947Z,102524.88
2023-04-17T18:01:46.717Z,102518.22
2023-04-17T18:04:14.134Z,102508.59
2023-04-17T18:06:41.512Z,102472.13
2023-04-17T18:09:08.300Z,102475.66
2023-04-17T18:14:18.596Z,102480.97
2023-04-17T18:19:26.219Z,102476.66
2023-04-17T18:21:53.800Z,102512.16
2023-04-17T18:24:20.603Z,102519.03
2023-04-17T18:26:48.404Z,102481.81
2023-04-17T18:29:15.814Z,102508.84
2023-04-17T18:31:42.831Z,102510.69
2023-04-17T18:34:09.669Z,102506.53
2023-04-17T18:36:36.436Z,102531.72
2023-04-17T18:39:03.438Z,102536.16
2023-04-17T18:41:30.400Z,102537.03
2023-04-17T18:43:57.351Z,102518.78
2023-04-17T18:46:26.359Z,102531.00
2023-04-17T18:48:53.519Z,102498.69
2023-04-17T18:51:20.886Z,102598.81
2023-04-17T18:53:48.612Z,102585.75
2023-04-17T18:56:16.171Z,102522.41
2023-04-17T18:58:43.590Z,102569.25
2023-04-17T19:01:10.939Z,102513.66
2023-04-17T19:03:38.758Z,102544.97
2023-04-17T19:06:06.823Z,102555.50
2023-04-17T19:08:33.915Z,102545.84
2023-04-17T19:11:01.135Z,102549.31
2023-04-17T19:13:28.546Z,102557.19
2023-04-17T19:15:55.296Z,102555.53
2023-04-17T19:18:24.463Z,102596.38
2023-04-17T19:20:56.675Z,102572.06
2023-04-17T19:23:23.949Z,102579.88
2023-04-17T19:25:57.234Z,102581.63
2023-04-17T19:28:25.693Z,102622.53
2023-04-17T19:30:53.126Z,102526.00
2023-04-17T19:33:20.838Z,102546.09
2023-04-17T19:35:57.429Z,102599.16
2023-04-17T19:38:26.551Z,102573.03
2023-04-17T19:41:14.845Z,102626.94
2023-04-17T19:43:43.600Z,102628.75
